^^
Grace C. Lehan Memorial Weather Station Historical Data
Daily Summary for March 5, 2021 Units:  English    Metric   Both
Daily Weekly Monthly Yearly
  High: Low: Average:
Temperature: 52.2 °F 30.5 °F 40.9 °F
Dew Point: 35.9 °F 28.4 °F 30.7 °F
Humidity: 93% 42.9% 70%
Wind Speed: 2.4mph 0mph 0.3mph
Wind Gust: 11mph - -
Wind- - SSW
Pressure: 30.38 in 30.24 in -
Precipitation: 0.00 in    
 
 
Tabular Data for March 5, 2021
Time Temperature Dew Point Pressure Wind Wind Speed Wind Gust Humidity Rainfall Rate (Hourly) solar
00:00 36.6 °F 31.9 °F 30.26 in Calm     83% 0.00 in 0 W/m2
00:09 36.3 °F 31.9 °F 30.26 in Calm     84% 0.00 in 0 W/m2
00:14 36.1 °F 31.7 °F 30.26 in Calm     84% 0.00 in 0 W/m2
00:19 35.9 °F 31.7 °F 30.26 in Calm     84.5% 0.00 in 0 W/m2
00:24 35.8 °F 31.7 °F 30.26 in Calm     85% 0.00 in 0 W/m2
00:29 35.6 °F 31.6 °F 30.26 in Calm     85.2% 0.00 in 0 W/m2
00:34 35.5 °F 31.7 °F 30.25 in Calm     86% 0.00 in 0 W/m2
00:39 35.3 °F 31.6 °F 30.25 in Calm     86% 0.00 in 0 W/m2
00:44 35.1 °F 31.4 °F 30.25 in Calm     86% 0.00 in 0 W/m2
00:49 34.9 °F 31.2 °F 30.25 in Calm     86% 0.00 in 0 W/m2
00:54 34.7 °F 31 °F 30.25 in Calm     86.2% 0.00 in 0 W/m2
00:59 34.6 °F 31.1 °F 30.25 in Calm     87% 0.00 in 0 W/m2
01:04 34.5 °F 31 °F 30.25 in Calm     87% 0.00 in 0 W/m2
01:09 34.4 °F 30.9 °F 30.25 in Calm     87% 0.00 in 0 W/m2
01:14 34.3 °F 30.9 °F 30.25 in Calm     87.3% 0.00 in 0 W/m2
01:19 34.2 °F 31 °F 30.25 in Calm     88% 0.00 in 0 W/m2
01:24 34.1 °F 31 °F 30.25 in Calm     88% 0.00 in 0 W/m2
01:29 34.1 °F 30.9 °F 30.25 in Calm     88% 0.00 in 0 W/m2
01:34 34 °F 30.8 °F 30.25 in Calm     88% 0.00 in 0 W/m2
01:39 34 °F 30.8 °F 30.25 in Calm     88% 0.00 in 0 W/m2
01:44 34 °F 30.9 °F 30.25 in Calm     88% 0.00 in 0 W/m2
01:49 34.1 °F 30.9 °F 30.24 in Calm     88% 0.00 in 0 W/m2
01:54 34.1 °F 30.9 °F 30.25 in Calm     88% 0.00 in 0 W/m2
01:59 34.1 °F 30.9 °F 30.25 in Calm     88% 0.00 in 0 W/m2
02:04 34 °F 30.8 °F 30.25 in Calm     88% 0.00 in 0 W/m2
02:09 34 °F 30.8 °F 30.25 in Calm     88% 0.00 in 0 W/m2
02:14 33.9 °F 30.7 °F 30.25 in Calm     88% 0.00 in 0 W/m2
02:19 33.8 °F 30.6 °F 30.25 in Calm     88% 0.00 in 0 W/m2
02:24 33.7 °F 30.6 °F 30.25 in Calm     88.2% 0.00 in 0 W/m2
02:29 33.6 °F 30.6 °F 30.25 in Calm     88.7% 0.00 in 0 W/m2
02:34 33.5 °F 30.6 °F 30.25 in Calm     89% 0.00 in 0 W/m2
02:39 33.5 °F 30.6 °F 30.25 in Calm     89% 0.00 in 0 W/m2
02:44 33.4 °F 30.5 °F 30.25 in Calm     89% 0.00 in 0 W/m2
02:49 33.4 °F 30.5 °F 30.25 in Calm     89% 0.00 in 0 W/m2
02:54 33.4 °F 30.7 °F 30.25 in Calm     89.6% 0.00 in 0 W/m2
02:59 33.3 °F 30.5 °F 30.25 in Calm     89.3% 0.00 in 0 W/m2
03:04 33.2 °F 30.3 °F 30.25 in Calm     89% 0.00 in 0 W/m2
03:09 33.1 °F 30.2 °F 30.25 in Calm     89% 0.00 in 0 W/m2
03:14 33 °F 30.1 °F 30.25 in Calm     89% 0.00 in 0 W/m2
03:19 32.8 °F 30 °F 30.25 in Calm     89% 0.00 in 0 W/m2
03:24 32.7 °F 30 °F 30.25 in Calm     89.7% 0.00 in 0 W/m2
03:29 32.7 °F 30.1 °F 30.25 in Calm     90% 0.00 in 0 W/m2
03:34 32.6 °F 30 °F 30.25 in Calm     90% 0.00 in 0 W/m2
03:39 32.5 °F 29.9 °F 30.25 in Calm     90% 0.00 in 0 W/m2
03:44 32.4 °F 29.8 °F 30.25 in Calm     90% 0.00 in 0 W/m2
03:49 32.3 °F 29.7 °F 30.25 in Calm     90% 0.00 in 0 W/m2
03:54 32.3 °F 29.7 °F 30.25 in Calm     90% 0.00 in 0 W/m2
03:59 32.3 °F 29.7 °F 30.25 in Calm     90% 0.00 in 0 W/m2
04:00 32.3 °F 29.7 °F 30.25 in Calm     90% 0.00 in 0 W/m2
04:09 32.1 °F 29.5 °F 30.25 in Calm     90% 0.00 in 0 W/m2
04:14 32.1 °F 29.5 °F 30.25 in Calm     90.2% 0.00 in 0 W/m2
04:19 32 °F 29.7 °F 30.26 in Calm     90.9% 0.00 in 0 W/m2
04:24 31.9 °F 29.6 °F 30.26 in Calm     91% 0.00 in 0 W/m2
04:29 31.9 °F 29.6 °F 30.25 in Calm     91% 0.00 in 0 W/m2
04:34 31.9 °F 29.5 °F 30.25 in Calm     91% 0.00 in 0 W/m2
04:39 31.8 °F 29.4 °F 30.26 in Calm     91% 0.00 in 0 W/m2
04:44 31.7 °F 29.4 °F 30.26 in Calm     91% 0.00 in 0 W/m2
04:49 31.6 °F 29.3 °F 30.26 in Calm     91% 0.00 in 0 W/m2
04:54 31.5 °F 29.2 °F 30.26 in Calm     91% 0.00 in 0 W/m2
04:59 31.4 °F 29.1 °F 30.26 in Calm     91% 0.00 in 0 W/m2
05:04 31.4 °F 29.1 °F 30.26 in Calm     91% 0.00 in 0 W/m2
05:09 31.3 °F 29 °F 30.26 in Calm     91% 0.00 in 0 W/m2
05:14 31.3 °F 29 °F 30.26 in Calm     91% 0.00 in 0 W/m2
05:19 31.3 °F 29 °F 30.26 in Calm     91% 0.00 in 0 W/m2
05:24 31.3 °F 29.2 °F 30.26 in Calm     91.8% 0.00 in 0 W/m2
05:29 31.4 °F 29.4 °F 30.27 in Calm     92% 0.00 in 0 W/m2
05:34 31.3 °F 29.3 °F 30.27 in Calm     92% 0.00 in 0 W/m2
05:39 31.2 °F 29.2 °F 30.27 in Calm     92% 0.00 in 0 W/m2
05:44 31.2 °F 28.9 °F 30.27 in Calm     91.2% 0.00 in 0 W/m2
05:49 31.1 °F 28.9 °F 30.28 in Calm     91.1% 0.00 in 0 W/m2
05:54 31.1 °F 29.1 °F 30.28 in Calm     92% 0.00 in 0 W/m2
05:59 31.1 °F 29 °F 30.28 in Calm     92% 0.00 in 0 W/m2
06:04 31.1 °F 29 °F 30.28 in Calm     92% 0.00 in 0 W/m2
06:09 31 °F 29 °F 30.28 in Calm     92% 0.00 in 0 W/m2
06:14 31 °F 29 °F 30.28 in Calm     92% 0.00 in 0 W/m2
06:19 31 °F 28.9 °F 30.29 in Calm     92% 0.00 in 0 W/m2
06:24 30.9 °F 28.8 °F 30.29 in Calm     92% 0.00 in 0 W/m2
06:29 30.8 °F 28.8 °F 30.28 in Calm     92% 0.00 in 0 W/m2
06:34 30.8 °F 28.7 °F 30.29 in Calm     92% 0.00 in 0 W/m2
06:39 30.7 °F 28.7 °F 30.29 in Calm     92% 0.00 in 0 W/m2
06:44 30.6 °F 28.6 °F 30.29 in Calm     92% 0.00 in 0 W/m2
06:49 30.6 °F 28.5 °F 30.29 in Calm     92% 0.00 in 0 W/m2
06:54 30.5 °F 28.5 °F 30.29 in Calm     92% 0.00 in 0 W/m2
06:59 30.5 °F 28.5 °F 30.30 in Calm     92% 0.00 in 0 W/m2
07:04 30.5 °F 28.4 °F 30.30 in Calm     92% 0.00 in 0 W/m2
07:09 30.5 °F 28.4 °F 30.30 in Calm     92% 0.00 in 0 W/m2
07:14 30.5 °F 28.4 °F 30.30 in Calm     92% 0.00 in 0 W/m2
07:19 30.5 °F 28.4 °F 30.30 in Calm     92% 0.00 in 0 W/m2
07:24 30.5 °F 28.4 °F 30.30 in Calm     92% 0.00 in 0 W/m2
07:29 30.5 °F 28.5 °F 30.31 in Calm     92% 0.00 in 0 W/m2
07:34 30.5 °F 28.5 °F 30.31 in Calm     92% 0.00 in 5 W/m2
07:39 30.5 °F 28.4 °F 30.31 in Calm     92% 0.00 in 9 W/m2
07:44 30.5 °F 28.5 °F 30.31 in Calm     92% 0.00 in 12 W/m2
07:49 30.5 °F 28.5 °F 30.31 in Calm     92% 0.00 in 16 W/m2
07:54 30.5 °F 28.4 °F 30.31 in Calm     92% 0.00 in 19 W/m2
07:59 30.5 °F 28.7 °F 30.31 in Calm     92.8% 0.00 in 21 W/m2
08:09 30.8 °F 29 °F 30.32 in Calm     93% 0.00 in 35 W/m2
08:14 31.1 °F 29.3 °F 30.32 in Calm     93% 0.00 in 35 W/m2
08:19 31.4 °F 29.6 °F 30.32 in Calm     93% 0.00 in 30 W/m2
08:24 31.6 °F 29.8 °F 30.32 in Calm   1 mph 93% 0.00 in 39 W/m2
08:29 31.8 °F 30.1 °F 30.33 in Calm   1 mph 93% 0.00 in 33 W/m2
08:34 32.1 °F 30.3 °F 30.33 in Calm   1 mph 93% 0.00 in 56 W/m2
08:39 32.3 °F 30.5 °F 30.33 in Calm     93% 0.00 in 49 W/m2
08:44 32.6 °F 30.8 °F 30.33 in Calm     93% 0.00 in 49 W/m2
08:49 32.9 °F 31.1 °F 30.33 in Calm     93% 0.00 in 54 W/m2
08:54 33.2 °F 31.4 °F 30.33 in Calm     93% 0.00 in 86 W/m2
08:59 33.6 °F 31.8 °F 30.34 in Calm     93% 0.00 in 195 W/m2
09:04 34.2 °F 32.4 °F 30.34 in Calm     93% 0.00 in 253 W/m2
09:09 35.2 °F 33.2 °F 30.34 in Calm     92.5% 0.00 in 265 W/m2
09:14 36.3 °F 34 °F 30.34 in Calm     91.2% 0.00 in 278 W/m2
09:19 37.5 °F 34.7 °F 30.34 in Calm     89.2% 0.00 in 295 W/m2
09:24 38.9 °F 35 °F 30.34 in NNW 0.3 mph 6 mph 85.9% 0.00 in 306 W/m2
09:29 39.9 °F 35 °F 30.34 in NNW 1.5 mph 6 mph 82.5% 0.00 in 322 W/m2
09:34 40.8 °F 35.3 °F 30.35 in NW 0.3 mph 6 mph 80.4% 0.00 in 339 W/m2
09:39 41.7 °F 35.5 °F 30.35 in NNW 0.4 mph 5 mph 78.2% 0.00 in 355 W/m2
09:44 42.6 °F 35.8 °F 30.34 in NNW 0.2 mph 5 mph 76.5% 0.00 in 367 W/m2
09:49 43.5 °F 35.9 °F 30.34 in NNW 0.6 mph 5 mph 74.5% 0.00 in 378 W/m2
09:54 44.1 °F 35.7 °F 30.34 in North 0.6 mph 5 mph 72.1% 0.00 in 388 W/m2
09:59 44.6 °F 35.6 °F 30.35 in North 1.1 mph 5 mph 70.5% 0.00 in 397 W/m2
10:04 44.8 °F 35.3 °F 30.35 in NNE 0.7 mph 5 mph 69.1% 0.00 in 415 W/m2
10:09 45.1 °F 35.5 °F 30.35 in North 0.8 mph 4 mph 68.9% 0.00 in 422 W/m2
10:14 45.4 °F 35.3 °F 30.35 in NNW 1.1 mph 7 mph 67.5% 0.00 in 434 W/m2
10:19 45.6 °F 35.1 °F 30.35 in North 1 mph 7 mph 66.5% 0.00 in 434 W/m2
10:24 45.7 °F 35 °F 30.35 in North 1 mph 7 mph 66% 0.00 in 276 W/m2
10:29 45.5 °F 34.5 °F 30.35 in East 0.3 mph 7 mph 65.2% 0.00 in 404 W/m2
10:34 45.4 °F 34.7 °F 30.35 in NE 0.8 mph 7 mph 66% 0.00 in 424 W/m2
10:39 45.5 °F 34.8 °F 30.35 in North 1 mph 6 mph 66.2% 0.00 in 468 W/m2
10:44 45.6 °F 34.9 °F 30.35 in NW 1.3 mph 6 mph 66% 0.00 in 494 W/m2
10:49 45.7 °F 34.5 °F 30.35 in NNW 2 mph 10 mph 64.8% 0.00 in 503 W/m2
10:54 45.8 °F 34.2 °F 30.35 in NNW 0.4 mph 10 mph 63.7% 0.00 in 506 W/m2
10:59 46 °F 34.3 °F 30.35 in NW 1 mph 10 mph 63.4% 0.00 in 425 W/m2
11:04 46.2 °F 34.1 °F 30.35 in NNW 1.1 mph 10 mph 62.4% 0.00 in 155 W/m2
11:09 46.4 °F 34 °F 30.35 in NNE 1 mph 6 mph 61.8% 0.00 in 533 W/m2
11:14 46.7 °F 34.2 °F 30.35 in NE 0.2 mph 6 mph 61.5% 0.00 in 540 W/m2
11:19 47.2 °F 34.4 °F 30.35 in NNE 0.3 mph 6 mph 60.8% 0.00 in 547 W/m2
11:24 47.8 °F 34.5 °F 30.35 in NNW 1.8 mph 9 mph 59.8% 0.00 in 554 W/m2
11:29 48.5 °F 35.1 °F 30.35 in NW 1.4 mph 9 mph 59.7% 0.00 in 561 W/m2
11:34 49.3 °F 34.9 °F 30.35 in North 0.3 mph 9 mph 57.6% 0.00 in 566 W/m2
11:39 49.7 °F 34.7 °F 30.35 in NW 2.4 mph 10 mph 56.2% 0.00 in 570 W/m2
11:44 50 °F 35.1 °F 30.35 in ENE 0.9 mph 10 mph 56.4% 0.00 in 461 W/m2
11:49 50.3 °F 35 °F 30.35 in NE 0.6 mph 10 mph 55.5% 0.00 in 417 W/m2
11:54 50.5 °F 35.6 °F 30.35 in NW 0.5 mph 10 mph 56.3% 0.00 in 396 W/m2
11:59 50.5 °F 34.8 °F 30.34 in NE 1.1 mph 10 mph 54.7% 0.00 in 311 W/m2
12:00 50.4 °F 34.4 °F 30.34 in Calm   10 mph 54% 0.00 in 40 W/m2
12:09 50 °F 34 °F 30.34 in NNW 2.4 mph 9 mph 54% 0.00 in 566 W/m2
12:14 49.8 °F 33.9 °F 30.34 in NNE 1 mph 9 mph 54.2% 0.00 in 515 W/m2
12:19 49.8 °F 33.9 °F 30.34 in NE 1.7 mph 9 mph 54.2% 0.00 in 475 W/m2
12:24 49.7 °F 34 °F 30.34 in NNE 0.6 mph 9 mph 54.7% 0.00 in 146 W/m2
12:29 49.6 °F 33.3 °F 30.33 in ENE 0.5 mph 9 mph 53.2% 0.00 in 76 W/m2
12:34 49.6 °F 33.6 °F 30.33 in NE 0.9 mph 9 mph 53.9% 0.00 in 299 W/m2
12:39 49.8 °F 33.6 °F 30.33 in NNE 1.9 mph 7 mph 53.7% 0.00 in 183 W/m2
12:44 49.9 °F 33.2 °F 30.33 in ENE 0.8 mph 7 mph 52.4% 0.00 in 364 W/m2
12:49 50.2 °F 33.3 °F 30.33 in NE 0.9 mph 7 mph 52.1% 0.00 in 413 W/m2
12:54 50.3 °F 33.1 °F 30.33 in North 0.5 mph 10 mph 51.5% 0.00 in 432 W/m2
12:59 50.3 °F 33.2 °F 30.33 in NW 2.1 mph 10 mph 51.6% 0.00 in 248 W/m2
13:04 50.4 °F 33.1 °F 30.32 in NW 0.9 mph 11 mph 51.3% 0.00 in 522 W/m2
13:09 50.4 °F 32.3 °F 30.31 in NNW 2 mph 11 mph 49.7% 0.00 in 366 W/m2
13:14 50.4 °F 31.8 °F 30.31 in NE 0.2 mph 11 mph 48.6% 0.00 in 251 W/m2
13:19 50.5 °F 31.2 °F 30.31 in NE 1.3 mph 11 mph 47.4% 0.00 in 397 W/m2
13:24 50.8 °F 31.2 °F 30.31 in ENE 0.3 mph 11 mph 47% 0.00 in 543 W/m2
13:29 50.9 °F 30.4 °F 30.30 in North 0.3 mph 11 mph 45.2% 0.00 in 550 W/m2
13:34 51 °F 30.9 °F 30.30 in ENE 1.3 mph 11 mph 45.9% 0.00 in 578 W/m2
13:39 50.8 °F 30.5 °F 30.30 in ENE 0.8 mph 5 mph 45.5% 0.00 in 485 W/m2
13:44 50.8 °F 31 °F 30.30 in NE 1.1 mph 5 mph 46.4% 0.00 in 246 W/m2
13:49 51 °F 30.9 °F 30.30 in NE 0.5 mph 5 mph 45.8% 0.00 in 192 W/m2
13:54 51.1 °F 30.4 °F 30.30 in NW 1.3 mph 11 mph 44.8% 0.00 in 492 W/m2
13:59 51.1 °F 30.8 °F 30.30 in NW 0.6 mph 11 mph 45.5% 0.00 in 520 W/m2
14:04 51.1 °F 30 °F 30.30 in NE 2.1 mph 11 mph 44.1% 0.00 in 466 W/m2
14:09 50.9 °F 29.4 °F 30.30 in ENE 1.9 mph 7 mph 43.2% 0.00 in 461 W/m2
14:14 50.8 °F 29.9 °F 30.30 in NE 2.2 mph 7 mph 44.3% 0.00 in 355 W/m2
14:19 50.9 °F 29.9 °F 30.29 in ENE 0.4 mph 7 mph 44.3% 0.00 in 132 W/m2
14:24 51 °F 30 °F 30.29 in NNE 0.5 mph 7 mph 44.2% 0.00 in 220 W/m2
14:29 51.3 °F 30.5 °F 30.29 in NNE 0.1 mph 7 mph 44.6% 0.00 in 218 W/m2
14:34 51.7 °F 30.7 °F 30.29 in NNW 0.3 mph 7 mph 44.4% 0.00 in 348 W/m2
14:39 52.1 °F 31.3 °F 30.29 in ENE 0.9 mph 5 mph 44.8% 0.00 in 396 W/m2
14:44 52.2 °F 30.6 °F 30.29 in ENE 0.5 mph 5 mph 43.4% 0.00 in 297 W/m2
14:49 52.1 °F 30.6 °F 30.29 in ENE 0.8 mph 6 mph 43.5% 0.00 in 343 W/m2
14:54 52.1 °F 30.4 °F 30.29 in ENE 0.4 mph 6 mph 43.2% 0.00 in 251 W/m2
14:59 52 °F 30.5 °F 30.29 in ENE 0.5 mph 6 mph 43.5% 0.00 in 190 W/m2
15:04 51.8 °F 29.9 °F 30.29 in ENE 0.3 mph 6 mph 42.9% 0.00 in 287 W/m2
15:09 51.6 °F 30.6 °F 30.28 in ENE 0.7 mph 4 mph 44.4% 0.00 in 127 W/m2
15:14 51.5 °F 30.6 °F 30.28 in ENE 1.2 mph 4 mph 44.6% 0.00 in 366 W/m2
15:19 51.5 °F 30.5 °F 30.28 in ENE 0.3 mph 4 mph 44.3% 0.00 in 385 W/m2
15:24 51.6 °F 30.4 °F 30.28 in ENE 1.4 mph 6 mph 44% 0.00 in 390 W/m2
15:29 51.7 °F 30.8 °F 30.28 in ENE 0.1 mph 6 mph 44.6% 0.00 in 360 W/m2
15:34 51.7 °F 31 °F 30.28 in NE 0.6 mph 6 mph 45% 0.00 in 302 W/m2
15:39 51.5 °F 30.9 °F 30.28 in NNE 0.3 mph 3 mph 45% 0.00 in 32 W/m2
15:44 51.4 °F 30.6 °F 30.28 in Calm   3 mph 44.7% 0.00 in 30 W/m2
15:49 51.3 °F 31 °F 30.28 in NNE 0.7 mph 4 mph 45.5% 0.00 in 28 W/m2
15:54 51.2 °F 31.3 °F 30.28 in Calm   4 mph 46.4% 0.00 in 28 W/m2
15:59 51.1 °F 30.8 °F 30.28 in North 0.1 mph 4 mph 45.6% 0.00 in 26 W/m2
16:00 51 °F 30.4 °F 30.28 in Calm   4 mph 45% 0.00 in 26 W/m2
16:09 50.9 °F 30.3 °F 30.28 in Calm   1 mph 45% 0.00 in 28 W/m2
16:14 50.9 °F 30.8 °F 30.28 in North 0.1 mph 1 mph 45.9% 0.00 in 26 W/m2
16:19 50.8 °F 30.8 °F 30.28 in NNW 0.4 mph 4 mph 46% 0.00 in 25 W/m2
16:24 50.8 °F 30.8 °F 30.28 in Calm   4 mph 46.1% 0.00 in 23 W/m2
16:29 50.7 °F 30.5 °F 30.28 in NW 0.5 mph 4 mph 45.7% 0.00 in 21 W/m2
16:34 50.6 °F 30.3 °F 30.28 in NNW 0.8 mph 5 mph 45.5% 0.00 in 21 W/m2
16:39 50.5 °F 30 °F 30.28 in North 0.3 mph 5 mph 45% 0.00 in 19 W/m2
16:44 50.4 °F 30.2 °F 30.29 in NNW 0.5 mph 5 mph 45.6% 0.00 in 19 W/m2
16:49 50.4 °F 30.1 °F 30.29 in NNW 0.4 mph 5 mph 45.4% 0.00 in 18 W/m2
16:54 50.3 °F 29.8 °F 30.29 in Calm   5 mph 45% 0.00 in 18 W/m2
16:59 50.3 °F 29.8 °F 30.30 in Calm   5 mph 45% 0.00 in 16 W/m2
17:04 50.2 °F 29.9 °F 30.30 in Calm   5 mph 45.3% 0.00 in 14 W/m2
17:09 50.1 °F 30.1 °F 30.30 in Calm   1 mph 46% 0.00 in 14 W/m2
17:14 49.9 °F 30.3 °F 30.30 in Calm   1 mph 46.5% 0.00 in 12 W/m2
17:19 49.8 °F 30.2 °F 30.31 in NNW 0.2 mph 1 mph 46.7% 0.00 in 11 W/m2
17:24 49.6 °F 30.4 °F 30.31 in Calm   1 mph 47.2% 0.00 in 9 W/m2
17:29 49.5 °F 30.7 °F 30.31 in NNW 0.2 mph 3 mph 48.2% 0.00 in 7 W/m2
17:34 49.3 °F 30.5 °F 30.31 in NNW 0.2 mph 3 mph 48% 0.00 in 5 W/m2
17:39 49.1 °F 30.3 °F 30.32 in Calm   3 mph 48% 0.00 in 0 W/m2
17:44 48.9 °F 30.1 °F 30.32 in Calm   3 mph 48% 0.00 in 0 W/m2
17:49 48.7 °F 30 °F 30.32 in Calm   3 mph 48.3% 0.00 in 0 W/m2
17:54 48.4 °F 30.1 °F 30.32 in NNW 0.2 mph 3 mph 49% 0.00 in 0 W/m2
17:59 48.1 °F 30.1 °F 30.32 in NNW 0.1 mph 3 mph 49.5% 0.00 in 0 W/m2
18:04 47.8 °F 30.1 °F 30.33 in Calm   3 mph 50% 0.00 in 0 W/m2
18:09 47.5 °F 29.8 °F 30.33 in NNW 0.1 mph 1 mph 50% 0.00 in 0 W/m2
18:14 47.2 °F 30 °F 30.33 in Calm   1 mph 51% 0.00 in 0 W/m2
18:19 46.9 °F 29.8 °F 30.33 in NNW 0.1 mph 2 mph 51% 0.00 in 0 W/m2
18:24 46.7 °F 29.6 °F 30.33 in Calm   2 mph 51.1% 0.00 in 0 W/m2
18:29 46.4 °F 29.8 °F 30.34 in Calm   2 mph 52% 0.00 in 0 W/m2
18:34 46.2 °F 29.5 °F 30.34 in Calm   2 mph 52% 0.00 in 0 W/m2
18:39 45.9 °F 29.3 °F 30.34 in NNW 0.1 mph 2 mph 52% 0.00 in 0 W/m2
18:44 45.7 °F 29.2 °F 30.35 in NNW 0.1 mph 2 mph 52.3% 0.00 in 0 W/m2
18:49 45.5 °F 29.4 °F 30.35 in NNW 0.1 mph 2 mph 53% 0.00 in 0 W/m2
18:54 45.3 °F 29.6 °F 30.35 in NNW 0.3 mph 3 mph 53.8% 0.00 in 0 W/m2
18:59 45.1 °F 29.3 °F 30.35 in Calm   3 mph 53.7% 0.00 in 0 W/m2
19:04 45 °F 29.3 °F 30.35 in NNW 0.3 mph 3 mph 54% 0.00 in 0 W/m2
19:09 44.8 °F 29.2 °F 30.36 in NNW 0.4 mph 3 mph 54% 0.00 in 0 W/m2
19:14 44.7 °F 29.2 °F 30.36 in NW 0.6 mph 5 mph 54.3% 0.00 in 0 W/m2
19:19 44.5 °F 29 °F 30.36 in NW 0.2 mph 5 mph 54.2% 0.00 in 0 W/m2
19:24 44.4 °F 28.8 °F 30.37 in Calm   5 mph 54% 0.00 in 0 W/m2
19:29 44.3 °F 28.7 °F 30.37 in Calm   5 mph 54% 0.00 in 0 W/m2
19:34 44.3 °F 28.7 °F 30.37 in Calm   5 mph 54% 0.00 in 0 W/m2
19:39 44.2 °F 28.9 °F 30.37 in Calm     54.7% 0.00 in 0 W/m2
19:44 44.2 °F 28.8 °F 30.37 in Calm     54.4% 0.00 in 0 W/m2
19:49 44.1 °F 29 °F 30.38 in Calm     55% 0.00 in 0 W/m2
19:54 44 °F 28.9 °F 30.38 in Calm     55% 0.00 in 0 W/m2
19:59 43.9 °F 28.9 °F 30.37 in Calm     55.3% 0.00 in 0 W/m2
20:00 43.8 °F 29.1 °F 30.37 in Calm     56% 0.00 in 0 W/m2
20:09 43.6 °F 29 °F 30.37 in Calm     56% 0.00 in 0 W/m2
20:14 43.6 °F 29 °F 30.37 in NW 0.1 mph 1 mph 56.3% 0.00 in 0 W/m2
20:19 43.4 °F 29 °F 30.37 in Calm   1 mph 56.5% 0.00 in 0 W/m2
20:24 43.3 °F 29.1 °F 30.37 in Calm   1 mph 57% 0.00 in 0 W/m2
20:29 43.1 °F 29.1 °F 30.37 in Calm   1 mph 57.3% 0.00 in 0 W/m2
20:34 42.9 °F 29.2 °F 30.37 in Calm   1 mph 58.1% 0.00 in 0 W/m2
20:39 42.8 °F 29 °F 30.37 in Calm     57.8% 0.00 in 0 W/m2
20:44 42.7 °F 29.2 °F 30.37 in Calm     58.6% 0.00 in 0 W/m2
20:49 42.5 °F 29.3 °F 30.37 in Calm     59.2% 0.00 in 0 W/m2
20:54 42.3 °F 29.2 °F 30.37 in Calm     59.4% 0.00 in 0 W/m2
20:59 42.1 °F 28.9 °F 30.37 in Calm     59.3% 0.00 in 0 W/m2
21:04 41.9 °F 29.1 °F 30.37 in Calm     60% 0.00 in 0 W/m2
21:09 41.8 °F 29.3 °F 30.37 in Calm     61% 0.00 in 0 W/m2
21:14 41.7 °F 29.2 °F 30.37 in Calm     61% 0.00 in 0 W/m2
21:19 41.6 °F 29.1 °F 30.36 in Calm     61% 0.00 in 0 W/m2
21:24 41.4 °F 29 °F 30.36 in Calm     61% 0.00 in 0 W/m2
21:29 41.3 °F 29.3 °F 30.37 in Calm     62.2% 0.00 in 0 W/m2
21:34 41.1 °F 29.4 °F 30.37 in Calm     62.7% 0.00 in 0 W/m2
21:39 41 °F 29.8 °F 30.37 in Calm     64% 0.00 in 0 W/m2
21:44 40.9 °F 29.8 °F 30.37 in Calm     64.5% 0.00 in 0 W/m2
21:49 40.7 °F 29.8 °F 30.37 in Calm     64.9% 0.00 in 0 W/m2
21:54 40.4 °F 29.8 °F 30.37 in Calm     65.4% 0.00 in 0 W/m2
21:59 40.2 °F 29.4 °F 30.37 in Calm     65% 0.00 in 0 W/m2
22:04 40 °F 29.3 °F 30.37 in Calm     65.3% 0.00 in 0 W/m2
22:09 39.8 °F 29.6 °F 30.37 in Calm     66.6% 0.00 in 0 W/m2
22:14 39.5 °F 30.1 °F 30.37 in Calm     68.9% 0.00 in 0 W/m2
22:19 39.1 °F 30.2 °F 30.37 in Calm     70% 0.00 in 0 W/m2
22:24 38.8 °F 30.1 °F 30.37 in Calm     70.8% 0.00 in 0 W/m2
22:29 38.6 °F 30 °F 30.37 in Calm     71% 0.00 in 0 W/m2
22:34 38.4 °F 29.8 °F 30.37 in Calm     71% 0.00 in 0 W/m2
22:39 38.3 °F 30 °F 30.37 in Calm     72% 0.00 in 0 W/m2
22:44 38.1 °F 29.9 °F 30.37 in Calm     72% 0.00 in 0 W/m2
22:49 37.9 °F 30 °F 30.37 in Calm     72.7% 0.00 in 0 W/m2
22:54 37.8 °F 29.9 °F 30.37 in Calm     73% 0.00 in 0 W/m2
22:59 37.6 °F 29.8 °F 30.37 in Calm     73.2% 0.00 in 0 W/m2
23:04 37.5 °F 29.9 °F 30.37 in Calm     74% 0.00 in 0 W/m2
23:09 37.3 °F 29.8 °F 30.37 in Calm     74% 0.00 in 0 W/m2
23:14 37.1 °F 29.8 °F 30.37 in Calm     74.7% 0.00 in 0 W/m2
23:19 37 °F 29.8 °F 30.37 in Calm     75% 0.00 in 0 W/m2
23:24 36.9 °F 29.8 °F 30.37 in Calm     75.1% 0.00 in 0 W/m2
23:29 36.8 °F 30 °F 30.37 in Calm     76.1% 0.00 in 0 W/m2
23:34 36.7 °F 30.1 °F 30.37 in Calm     77% 0.00 in 0 W/m2
23:39 36.6 °F 30.2 °F 30.37 in Calm     77.4% 0.00 in 0 W/m2
23:44 36.4 °F 30.2 °F 30.37 in Calm     78% 0.00 in 0 W/m2
23:49 36.2 °F 30.2 °F 30.37 in Calm     78.7% 0.00 in 0 W/m2
23:54 36.1 °F 30.3 °F 30.37 in Calm     79.3% 0.00 in 0 W/m2
23:59 36 °F 30.5 °F 30.37 in Calm     80.3% 0.00 in 0 W/m2
Hartford County Weather
Compliments of Weather Underground - 4 mb